createdAt,value
2022-09-12T00:01:19.693Z,100776.00
2022-09-12T00:03:49.313Z,100774.25
2022-09-12T00:06:23.198Z,100775.31
2022-09-12T00:08:54.759Z,100778.97
2022-09-12T00:11:24.005Z,100778.16
2022-09-12T00:13:53.312Z,100773.72
2022-09-12T00:16:25.312Z,100782.69
2022-09-12T00:18:55.118Z,100778.25
2022-09-12T00:21:25.069Z,100778.41
2022-09-12T00:23:54.067Z,100780.31
2022-09-12T00:26:23.890Z,100779.44
2022-09-12T00:28:53.321Z,100781.28
2022-09-12T00:31:25.047Z,100784.78
2022-09-12T00:33:56.295Z,100784.88
2022-09-12T00:36:26.995Z,100779.53
2022-09-12T00:38:56.306Z,100777.78
2022-09-12T00:41:28.091Z,100780.50
2022-09-12T00:43:59.694Z,100782.38
2022-09-12T00:46:36.233Z,100773.56
2022-09-12T00:49:13.537Z,100777.19
2022-09-12T00:51:46.177Z,100774.50
2022-09-12T00:54:22.176Z,100777.28
2022-09-12T00:56:56.879Z,100774.63
2022-09-12T00:59:28.663Z,100778.28
2022-09-12T01:01:59.092Z,100774.81
2022-09-12T01:04:30.046Z,100774.88
2022-09-12T01:07:00.497Z,100774.88
2022-09-12T01:09:29.685Z,100783.88
2022-09-12T01:11:59.164Z,100778.53
2022-09-12T01:14:28.272Z,100774.97
2022-09-12T01:16:58.821Z,100774.06
2022-09-12T01:20:05.842Z,100773.25
2022-09-12T01:22:57.939Z,100780.47
2022-09-12T01:25:32.397Z,100779.66
2022-09-12T01:28:34.329Z,100778.78
2022-09-12T01:31:09.720Z,100772.63
2022-09-12T01:34:10.751Z,100777.19
2022-09-12T01:36:48.586Z,100772.72
2022-09-12T01:39:27.935Z,100771.91
2022-09-12T01:42:09.858Z,100775.50
2022-09-12T01:44:45.580Z,100775.50
2022-09-12T01:47:22.795Z,100782.72
2022-09-12T01:49:58.853Z,100777.34
2022-09-12T01:52:34.745Z,100787.25
2022-09-12T01:55:10.255Z,100786.38
2022-09-12T01:57:45.567Z,100781.03
2022-09-12T02:00:15.653Z,100782.00
2022-09-12T02:02:52.979Z,100779.41
2022-09-12T02:05:28.815Z,100782.16
2022-09-12T02:08:06.974Z,100785.75
2022-09-12T02:10:44.775Z,100782.22
2022-09-12T02:13:17.942Z,100784.91
2022-09-12T02:15:51.864Z,100784.13
2022-09-12T02:18:22.962Z,100791.34
2022-09-12T02:20:55.380Z,100789.59
2022-09-12T02:23:27.541Z,100791.47
2022-09-12T02:26:00.065Z,100789.72
2022-09-12T02:28:35.047Z,100791.50
2022-09-12T02:31:24.237Z,100791.59
2022-09-12T02:34:09.239Z,100781.81
2022-09-12T02:36:46.649Z,100781.00
2022-09-12T02:39:20.007Z,100781.13
2022-09-12T02:41:51.899Z,100786.47
2022-09-12T02:44:21.550Z,100787.41
2022-09-12T02:46:55.313Z,100783.00
2022-09-12T02:49:25.683Z,100785.66
2022-09-12T02:51:54.796Z,100785.75
2022-09-12T02:54:24.991Z,100778.63
2022-09-12T02:56:53.850Z,100781.25
2022-09-12T02:59:25.700Z,100789.22
2022-09-12T03:02:13.420Z,100789.16
2022-09-12T03:05:08.401Z,100781.13
2022-09-12T03:08:06.249Z,100790.94
2022-09-12T03:10:42.712Z,100795.38
2022-09-12T03:13:22.824Z,100784.69
2022-09-12T03:16:05.194Z,100789.97
2022-09-12T03:18:43.821Z,100794.34
2022-09-12T03:21:24.203Z,100798.91
2022-09-12T03:24:04.752Z,100797.97
2022-09-12T03:26:40.491Z,100796.22
2022-09-12T03:29:11.483Z,100801.56
2022-09-12T03:31:51.319Z,100806.06
2022-09-12T03:34:20.643Z,100817.69
2022-09-12T03:36:51.593Z,100814.13
2022-09-12T03:39:21.106Z,100824.00
2022-09-12T03:41:50.215Z,100822.16
2022-09-12T03:44:19.240Z,100822.28
2022-09-12T03:46:48.581Z,100823.16
2022-09-12T03:49:17.918Z,100827.63
2022-09-12T03:51:46.873Z,100820.53
2022-09-12T03:54:17.497Z,100824.16
2022-09-12T03:56:47.392Z,100822.38
2022-09-12T03:59:16.209Z,100812.66
2022-09-12T04:01:45.094Z,100825.13
2022-09-12T04:04:14.238Z,100816.22
2022-09-12T04:06:44.088Z,100818.91
2022-09-12T04:09:12.944Z,100821.56
2022-09-12T04:11:43.702Z,100826.91
2022-09-12T04:14:12.695Z,100824.38
2022-09-12T04:16:41.643Z,100819.03
2022-09-12T04:19:12.686Z,100824.38
2022-09-12T04:21:41.588Z,100822.63
2022-09-12T04:24:10.524Z,100826.25
2022-09-12T04:26:39.816Z,100831.59
2022-09-12T04:29:11.672Z,100825.38
2022-09-12T04:31:40.872Z,100840.47
2022-09-12T04:34:10.006Z,100834.25
2022-09-12T04:36:39.296Z,100837.78
2022-09-12T04:39:08.598Z,100839.53
2022-09-12T04:41:39.344Z,100843.13
2022-09-12T04:44:12.974Z,100838.66
2022-09-12T04:46:44.633Z,100841.28
2022-09-12T04:49:14.495Z,100842.16
2022-09-12T04:51:45.552Z,100851.94
2022-09-12T04:54:17.166Z,100835.81
2022-09-12T04:56:47.835Z,100843.78
2022-09-12T04:59:19.855Z,100847.25
2022-09-12T05:01:49.372Z,100842.72
2022-09-12T05:04:18.307Z,100851.56
2022-09-12T05:06:48.195Z,100846.09
2022-09-12T05:09:17.512Z,100848.66
2022-09-12T05:12:03.663Z,100844.81
2022-09-12T05:14:35.791Z,100845.44
2022-09-12T05:17:06.125Z,100854.91
2022-09-12T05:19:35.405Z,100844.13
2022-09-12T05:22:05.080Z,100850.19
2022-09-12T05:24:34.038Z,100855.25
2022-09-12T05:27:04.775Z,100845.25
2022-09-12T05:29:35.132Z,100853.81
2022-09-12T05:32:04.777Z,100858.81
2022-09-12T05:34:33.534Z,100853.19
2022-09-12T05:37:02.381Z,100857.38
2022-09-12T05:39:31.821Z,100852.69
2022-09-12T05:42:00.636Z,100861.41
2022-09-12T05:44:29.625Z,100856.69
2022-09-12T05:47:00.073Z,100862.66
2022-09-12T05:49:29.996Z,100858.78
2022-09-12T05:51:59.156Z,100863.03
2022-09-12T05:54:31.354Z,100860.91
2022-09-12T05:57:01.043Z,100866.00
2022-09-12T05:59:30.107Z,100864.88
2022-09-12T06:02:00.540Z,100860.16
2022-09-12T06:04:29.746Z,100867.81
2022-09-12T06:06:58.556Z,100865.66
2022-09-12T06:09:28.198Z,100859.22
2022-09-12T06:11:57.230Z,100863.38
2022-09-12T06:14:26.110Z,100868.34
2022-09-12T06:16:55.003Z,100873.34
2022-09-12T06:19:27.900Z,100875.75
2022-09-12T06:21:56.777Z,100868.97
2022-09-12T06:24:25.874Z,100867.75
2022-09-12T06:26:54.789Z,100866.50
2022-09-12T06:29:25.215Z,100871.56
2022-09-12T06:31:54.258Z,100879.38
2022-09-12T06:34:24.554Z,100876.41
2022-09-12T06:36:53.776Z,100871.53
2022-09-12T06:39:24.443Z,100872.78
2022-09-12T06:41:54.346Z,100872.41
2022-09-12T06:44:35.408Z,100870.22
2022-09-12T06:47:04.388Z,100876.84
2022-09-12T06:49:34.746Z,100887.19
2022-09-12T06:52:04.186Z,100877.09
2022-09-12T06:54:33.597Z,100888.31
2022-09-12T06:57:02.500Z,100874.22
2022-09-12T06:59:31.669Z,100879.03
2022-09-12T07:02:01.696Z,100879.44
2022-09-12T07:04:33.375Z,100879.97
2022-09-12T07:07:03.856Z,100878.56
2022-09-12T07:09:32.832Z,100885.28
2022-09-12T07:12:04.363Z,100890.09
2022-09-12T07:14:33.503Z,100891.38
2022-09-12T07:17:02.423Z,100896.19
2022-09-12T07:19:31.462Z,100902.81
2022-09-12T07:22:00.456Z,100896.13
2022-09-12T07:24:30.805Z,100900.94
2022-09-12T07:26:59.617Z,100907.59
2022-09-12T07:29:37.687Z,100909.50
2022-09-12T07:32:08.122Z,100915.06
2022-09-12T07:34:37.318Z,100911.63
2022-09-12T07:37:06.862Z,100913.88
2022-09-12T07:39:37.826Z,100910.66
2022-09-12T07:42:07.547Z,100919.81
2022-09-12T07:44:36.526Z,100909.47
2022-09-12T07:47:05.652Z,100911.81
2022-09-12T07:49:36.074Z,100919.38
2022-09-12T07:52:05.528Z,100916.03
2022-09-12T07:54:34.739Z,100916.66
2022-09-12T07:57:05.444Z,100924.28
2022-09-12T07:59:51.896Z,100916.78
2022-09-12T08:02:21.846Z,100923.72
2022-09-12T08:04:51.536Z,100928.94
2022-09-12T08:07:20.591Z,100930.31
2022-09-12T08:09:49.777Z,100922.81
2022-09-12T08:12:20.384Z,100924.16
2022-09-12T08:14:49.417Z,100920.31
2022-09-12T08:17:18.496Z,100921.69
2022-09-12T08:19:48.254Z,100922.97
2022-09-12T08:22:18.652Z,100930.72
2022-09-12T08:24:47.837Z,100929.28
2022-09-12T08:27:16.856Z,100932.34
2022-09-12T08:29:47.198Z,100930.25
2022-09-12T08:32:16.230Z,100937.03
2022-09-12T08:34:45.241Z,100931.88
2022-09-12T08:37:14.163Z,100929.50
2022-09-12T08:39:43.981Z,100939.13
2022-09-12T08:42:24.449Z,100942.41
2022-09-12T08:45:15.215Z,100943.84
2022-09-12T08:47:46.596Z,100943.75
2022-09-12T08:50:19.777Z,100952.63
2022-09-12T08:52:58.146Z,100945.28
2022-09-12T08:55:34.777Z,100939.78
2022-09-12T08:58:13.249Z,100942.41
2022-09-12T09:00:50.897Z,100943.06
2022-09-12T09:03:54.094Z,100943.72
2022-09-12T09:06:59.487Z,100944.31
2022-09-12T09:09:43.014Z,100944.13
2022-09-12T09:12:23.724Z,100940.44
2022-09-12T09:15:12.039Z,100943.91
2022-09-12T09:17:46.317Z,100950.19
2022-09-12T09:20:24.140Z,100948.25
2022-09-12T09:22:56.998Z,100948.06
2022-09-12T09:25:30.592Z,100939.66
2022-09-12T09:28:06.148Z,100948.34
2022-09-12T09:30:37.522Z,100942.53
2022-09-12T09:33:13.131Z,100942.13
2022-09-12T09:35:46.655Z,100946.94
2022-09-12T09:38:26.160Z,100952.63
2022-09-12T09:41:08.204Z,100958.47
2022-09-12T09:43:40.603Z,100945.59
2022-09-12T09:46:09.805Z,100948.97
2022-09-12T09:48:45.525Z,100959.78
2022-09-12T09:51:18.153Z,100947.03
2022-09-12T09:53:51.320Z,100939.66
2022-09-12T09:56:29.379Z,100947.47
2022-09-12T09:58:58.964Z,100948.16
2022-09-12T10:01:28.556Z,100941.56
2022-09-12T10:03:59.927Z,100946.56
2022-09-12T10:06:34.363Z,100957.91
2022-09-12T10:09:18.810Z,100961.19
2022-09-12T10:11:48.443Z,100955.56
2022-09-12T10:14:36.774Z,100950.91
2022-09-12T10:17:25.845Z,100948.09
2022-09-12T10:20:17.368Z,100943.28
2022-09-12T10:22:49.598Z,100951.06
2022-09-12T10:25:19.754Z,100950.53
2022-09-12T10:27:55.585Z,100956.50
2022-09-12T10:30:28.307Z,100947.06
2022-09-12T10:33:07.379Z,100949.56
2022-09-12T10:35:49.744Z,100954.13
2022-09-12T10:38:25.025Z,100942.41
2022-09-12T10:41:00.322Z,100948.72
2022-09-12T10:43:35.586Z,100953.88
2022-09-12T10:46:25.127Z,100941.34
2022-09-12T10:49:15.612Z,100947.63
2022-09-12T10:51:45.853Z,100938.50
2022-09-12T10:54:18.145Z,100943.94
2022-09-12T10:57:12.470Z,100939.91
2022-09-12T10:59:59.798Z,100949.59
2022-09-12T11:02:31.576Z,100947.41
2022-09-12T11:05:10.121Z,100948.91
2022-09-12T11:07:48.930Z,100939.69
2022-09-12T11:10:37.452Z,100944.91
2022-09-12T11:13:13.904Z,100949.34
2022-09-12T11:16:04.101Z,100940.88
2022-09-12T11:18:57.272Z,100951.41
2022-09-12T11:21:45.146Z,100951.94
2022-09-12T11:24:38.907Z,100956.25
2022-09-12T11:27:36.451Z,100954.22
2022-09-12T11:30:10.606Z,100956.69
2022-09-12T11:33:05.903Z,100947.47
2022-09-12T11:35:36.590Z,100960.06
2022-09-12T11:38:34.848Z,100961.91
2022-09-12T11:41:09.361Z,100953.88
2022-09-12T11:43:43.199Z,100953.00
2022-09-12T11:46:19.166Z,100954.72
2022-09-12T11:48:55.927Z,100966.22
2022-09-12T11:51:30.011Z,100965.03
2022-09-12T11:54:06.145Z,100964.81
2022-09-12T11:56:43.692Z,100964.63
2022-09-12T11:59:20.987Z,100966.34
2022-09-12T12:01:54.788Z,100951.69
2022-09-12T12:04:32.675Z,100956.91
2022-09-12T12:07:06.620Z,100954.69
2022-09-12T12:09:37.183Z,100963.25
2022-09-12T12:12:16.657Z,100964.53
2022-09-12T12:14:48.878Z,100965.84
2022-09-12T12:17:20.466Z,100969.19
2022-09-12T12:20:05.547Z,100973.63
2022-09-12T12:22:37.841Z,100972.75
2022-09-12T12:25:29.393Z,100972.63
2022-09-12T12:28:01.949Z,100972.63
2022-09-12T12:31:02.578Z,100981.31
2022-09-12T12:33:55.512Z,100977.38
2022-09-12T12:36:35.076Z,100969.00
2022-09-12T12:39:52.669Z,100978.88
2022-09-12T12:43:04.682Z,100969.88
2022-09-12T12:46:03.688Z,100972.84
2022-09-12T12:48:46.004Z,100974.81
2022-09-12T12:51:28.977Z,100967.84
2022-09-12T12:53:58.757Z,100968.72
2022-09-12T12:56:34.536Z,100971.34
2022-09-12T12:59:12.857Z,100970.97
2022-09-12T13:01:55.198Z,100973.34
2022-09-12T13:04:28.913Z,100973.75
2022-09-12T13:07:07.179Z,100968.84
2022-09-12T13:09:45.262Z,100964.91
2022-09-12T13:12:23.250Z,100968.16
2022-09-12T13:14:55.493Z,100965.94
2022-09-12T13:17:33.970Z,100971.94
2022-09-12T13:20:28.317Z,100961.56
2022-09-12T13:22:58.553Z,100961.34
2022-09-12T13:25:31.214Z,100951.97
2022-09-12T13:28:05.220Z,100956.94
2022-09-12T13:30:36.823Z,100958.94
2022-09-12T13:33:22.137Z,100964.69
2022-09-12T13:36:11.390Z,100957.25
2022-09-12T13:38:52.419Z,100948.56
2022-09-12T13:41:39.908Z,100952.50
2022-09-12T13:44:13.251Z,100957.34
2022-09-12T13:46:42.667Z,100962.31
2022-09-12T13:49:22.011Z,100963.22
2022-09-12T13:52:01.274Z,100967.34
2022-09-12T13:54:32.040Z,100975.50
2022-09-12T13:57:01.691Z,100974.31
2022-09-12T13:59:38.695Z,100978.16
2022-09-12T14:02:20.319Z,100978.81
2022-09-12T14:05:10.290Z,100980.94
2022-09-12T14:07:51.363Z,100972.66
2022-09-12T14:10:27.164Z,100970.44
2022-09-12T14:12:58.822Z,100975.00
2022-09-12T14:15:31.180Z,100978.09
2022-09-12T14:18:03.326Z,100973.03
2022-09-12T14:20:39.483Z,100973.78
2022-09-12T14:23:22.371Z,100980.19
2022-09-12T14:25:52.145Z,100981.66
2022-09-12T14:28:23.596Z,100982.31
2022-09-12T14:31:06.552Z,100980.19
2022-09-12T14:33:48.525Z,100977.72
2022-09-12T14:36:24.530Z,100972.22
2022-09-12T14:38:57.920Z,100976.22
2022-09-12T14:41:31.055Z,100985.47
2022-09-12T14:44:03.186Z,100980.91
2022-09-12T14:46:35.641Z,100974.81
2022-09-12T14:49:11.828Z,100974.66
2022-09-12T14:51:54.051Z,100966.63
2022-09-12T14:54:43.770Z,100982.06
2022-09-12T14:57:33.395Z,100976.00
2022-09-12T15:00:24.054Z,100978.50
2022-09-12T15:02:54.659Z,100976.25
2022-09-12T15:05:28.475Z,100977.16
2022-09-12T15:08:02.794Z,100979.19
2022-09-12T15:10:36.083Z,100984.44
2022-09-12T15:13:16.999Z,100973.66
2022-09-12T15:15:48.109Z,100981.44
2022-09-12T15:18:18.835Z,100991.16
2022-09-12T15:20:51.051Z,100983.28
2022-09-12T15:23:35.080Z,100980.47
2022-09-12T15:26:04.691Z,100982.84
2022-09-12T15:28:34.377Z,100975.38
2022-09-12T15:31:09.139Z,100972.19
2022-09-12T15:33:38.417Z,100974.63
2022-09-12T15:36:14.447Z,100973.69
2022-09-12T15:38:45.351Z,100977.59
2022-09-12T15:41:18.062Z,100974.34
2022-09-12T15:43:48.829Z,100974.31
2022-09-12T15:46:20.531Z,100974.56
2022-09-12T15:48:50.130Z,100976.69
2022-09-12T15:51:21.940Z,100984.66
2022-09-12T15:53:53.036Z,100984.69
2022-09-12T15:56:23.300Z,100983.34
2022-09-12T15:58:59.307Z,100977.34
2022-09-12T16:01:30.049Z,100975.97
2022-09-12T16:03:59.966Z,100976.81
2022-09-12T16:06:36.270Z,100974.75
2022-09-12T16:09:08.206Z,100973.53
2022-09-12T16:11:37.560Z,100976.13
2022-09-12T16:14:07.168Z,100978.38
2022-09-12T16:16:36.767Z,100970.94
2022-09-12T16:19:06.408Z,100970.72
2022-09-12T16:21:35.259Z,100977.28
2022-09-12T16:24:05.659Z,100971.09
2022-09-12T16:26:37.143Z,100971.34
2022-09-12T16:29:06.666Z,100967.81
2022-09-12T16:31:38.578Z,100967.13
2022-09-12T16:34:07.804Z,100966.34
2022-09-12T16:36:36.633Z,100971.75
2022-09-12T16:39:06.334Z,100959.78
2022-09-12T16:41:37.128Z,100965.22
2022-09-12T16:44:06.122Z,100958.28
2022-09-12T16:46:35.074Z,100961.19
2022-09-12T16:49:06.004Z,100959.41
2022-09-12T16:51:36.864Z,100961.34
2022-09-12T16:54:06.283Z,100964.97
2022-09-12T16:56:37.513Z,100956.00
2022-09-12T16:59:06.818Z,100952.50
2022-09-12T17:01:36.179Z,100949.06
2022-09-12T17:04:05.186Z,100947.22
2022-09-12T17:06:35.211Z,100944.19
2022-09-12T17:09:05.325Z,100944.97
2022-09-12T17:11:38.220Z,100951.03
2022-09-12T17:14:09.130Z,100943.72
2022-09-12T17:16:45.927Z,100944.38
2022-09-12T17:19:19.424Z,100943.91
2022-09-12T17:21:50.363Z,100941.53
2022-09-12T17:24:20.858Z,100948.16
2022-09-12T17:26:51.684Z,100946.50
2022-09-12T17:29:21.258Z,100945.41
2022-09-12T17:31:50.547Z,100956.94
2022-09-12T17:34:19.444Z,100947.72
2022-09-12T17:36:48.538Z,100950.84
2022-09-12T17:39:17.981Z,100948.84
2022-09-12T17:41:47.256Z,100942.28
2022-09-12T17:44:18.735Z,100944.56
2022-09-12T17:46:47.893Z,100952.19
2022-09-12T17:49:21.022Z,100951.63
2022-09-12T17:51:52.087Z,100953.75
2022-09-12T17:54:22.421Z,100952.34
2022-09-12T17:56:52.262Z,100957.84
2022-09-12T17:59:24.988Z,100953.41
2022-09-12T18:02:11.820Z,100959.75
2022-09-12T18:04:41.427Z,100952.84
2022-09-12T18:07:10.971Z,100959.34
2022-09-12T18:09:41.243Z,100955.91
2022-09-12T18:12:10.617Z,100953.31
2022-09-12T18:14:43.801Z,100955.97
2022-09-12T18:17:13.363Z,100958.50
2022-09-12T18:19:42.475Z,100956.50
2022-09-12T18:22:11.695Z,100968.81
2022-09-12T18:24:41.463Z,100965.94
2022-09-12T18:27:10.402Z,100960.38
2022-09-12T18:29:39.673Z,100955.66
2022-09-12T18:32:10.059Z,100951.72
2022-09-12T18:34:39.051Z,100952.28
2022-09-12T18:37:08.233Z,100957.22
2022-09-12T18:39:37.294Z,100960.50
2022-09-12T18:42:08.359Z,100947.69
2022-09-12T18:44:37.949Z,100953.56
2022-09-12T18:47:07.845Z,100945.94
2022-09-12T18:49:38.358Z,100944.66
2022-09-12T18:52:07.648Z,100940.63
2022-09-12T18:54:37.496Z,100941.19
2022-09-12T18:57:07.396Z,100941.50
2022-09-12T18:59:36.639Z,100936.34
2022-09-12T19:02:08.329Z,100943.94
2022-09-12T19:04:39.128Z,100938.97
2022-09-12T19:07:08.109Z,100937.50
2022-09-12T19:09:37.032Z,100948.56
2022-09-12T19:12:06.505Z,100941.75
2022-09-12T19:14:35.273Z,100950.09
2022-09-12T19:17:04.418Z,100948.66
2022-09-12T19:19:36.597Z,100935.75
2022-09-12T19:22:09.529Z,100935.34
2022-09-12T19:24:39.895Z,100938.31
2022-09-12T19:27:10.001Z,100921.66
2022-09-12T19:29:39.042Z,100919.38
2022-09-12T19:32:08.372Z,100912.59
2022-09-12T19:34:37.245Z,100906.72
2022-09-12T19:37:06.526Z,100906.13
2022-09-12T19:39:37.079Z,100903.72
2022-09-12T19:42:06.225Z,100903.06
2022-09-12T19:44:35.269Z,100905.94
2022-09-12T19:47:04.431Z,100908.00
2022-09-12T19:49:33.376Z,100903.66
2022-09-12T19:52:02.651Z,100897.66
2022-09-12T19:54:31.656Z,100896.06
2022-09-12T19:57:01.849Z,100894.47
2022-09-12T19:59:31.473Z,100889.22
2022-09-12T20:02:00.400Z,100893.00
2022-09-12T20:04:29.808Z,100891.50
2022-09-12T20:06:59.002Z,100895.28
2022-09-12T20:09:27.825Z,100897.31
2022-09-12T20:11:56.787Z,100888.59
2022-09-12T20:14:27.216Z,100895.91
2022-09-12T20:16:56.280Z,100881.00
2022-09-12T20:19:25.262Z,100892.72
2022-09-12T20:21:54.267Z,100884.00
2022-09-12T20:24:23.100Z,100890.41
2022-09-12T20:26:52.016Z,100879.88
2022-09-12T20:29:21.151Z,100871.06
2022-09-12T20:31:51.847Z,100869.47
2022-09-12T20:34:22.514Z,100874.09
2022-09-12T20:36:51.642Z,100870.63
2022-09-12T20:39:22.814Z,100872.59
2022-09-12T20:41:51.942Z,100870.88
2022-09-12T20:44:21.217Z,100867.50
2022-09-12T20:46:51.444Z,100864.00
2022-09-12T20:49:20.443Z,100859.63
2022-09-12T20:51:49.465Z,100863.38
2022-09-12T20:54:18.343Z,100861.69
2022-09-12T20:56:47.230Z,100862.75
2022-09-12T20:59:16.517Z,100865.59
2022-09-12T21:01:45.536Z,100870.25
2022-09-12T21:04:16.203Z,100865.97
2022-09-12T21:06:45.273Z,100863.41
2022-09-12T21:09:14.853Z,100853.75
2022-09-12T21:11:43.805Z,100852.94
2022-09-12T21:14:13.072Z,100859.38
2022-09-12T21:16:41.885Z,100854.16
2022-09-12T21:19:10.986Z,100854.34
2022-09-12T21:21:41.413Z,100858.91
2022-09-12T21:24:13.970Z,100853.72
2022-09-12T21:26:43.258Z,100849.41
2022-09-12T21:29:12.142Z,100846.84
2022-09-12T21:31:41.011Z,100844.34
2022-09-12T21:34:10.377Z,100846.22
2022-09-12T21:36:40.820Z,100845.50
2022-09-12T21:39:09.989Z,100834.91
2022-09-12T21:41:38.961Z,100835.88
2022-09-12T21:44:07.986Z,100828.00
2022-09-12T21:46:37.047Z,100832.59
2022-09-12T21:49:06.585Z,100830.03
2022-09-12T21:51:35.444Z,100825.75
2022-09-12T21:54:05.998Z,100818.72
2022-09-12T21:56:35.299Z,100819.69
2022-09-12T21:59:04.365Z,100816.28
2022-09-12T22:01:33.299Z,100829.75
2022-09-12T22:04:02.329Z,100824.53
2022-09-12T22:06:31.516Z,100822.94
2022-09-12T22:09:00.478Z,100825.63
2022-09-12T22:11:30.898Z,100823.09
2022-09-12T22:13:59.854Z,100825.94
2022-09-12T22:16:28.787Z,100822.56
2022-09-12T22:18:58.476Z,100820.03
2022-09-12T22:21:27.267Z,100820.19
2022-09-12T22:24:13.681Z,100825.63
2022-09-12T22:26:46.166Z,100828.47
2022-09-12T22:29:15.366Z,100830.41
2022-09-12T22:31:44.640Z,100834.13
2022-09-12T22:34:14.242Z,100828.88
2022-09-12T22:36:43.452Z,100822.78
2022-09-12T22:39:12.273Z,100821.09
2022-09-12T22:41:41.479Z,100824.72
2022-09-12T22:44:13.103Z,100823.03
2022-09-12T22:46:42.464Z,100817.81
2022-09-12T22:49:11.427Z,100821.44
2022-09-12T22:51:40.990Z,100811.75
2022-09-12T22:54:11.747Z,100809.13
2022-09-12T22:56:40.895Z,100814.53
2022-09-12T22:59:11.196Z,100814.63
2022-09-12T23:01:40.552Z,100804.94
2022-09-12T23:04:09.646Z,100809.47
2022-09-12T23:06:38.712Z,100804.25
2022-09-12T23:09:08.076Z,100802.56
2022-09-12T23:11:37.123Z,100803.59
2022-09-12T23:14:06.013Z,100800.09
2022-09-12T23:16:36.661Z,100796.63
2022-09-12T23:19:05.655Z,100795.88
2022-09-12T23:21:34.494Z,100794.19
2022-09-12T23:24:05.211Z,100790.72
2022-09-12T23:26:34.032Z,100790.78
2022-09-12T23:29:05.674Z,100791.75
2022-09-12T23:31:36.764Z,100783.00
2022-09-12T23:34:07.085Z,100768.84
2022-09-12T23:36:37.142Z,100776.03
2022-09-12T23:39:06.484Z,100771.72
2022-09-12T23:41:35.449Z,100770.91
2022-09-12T23:44:04.810Z,100771.00
2022-09-12T23:46:35.191Z,100764.84
2022-09-12T23:49:04.033Z,100765.81
2022-09-12T23:51:33.127Z,100764.13
2022-09-12T23:54:02.043Z,100758.91
2022-09-12T23:56:31.017Z,100761.63
2022-09-12T23:59:00.043Z,100762.63
